Cudahy, WI (53110)

2:16 PM CST on November 27, 2014 (GMT -0600)
E Layton | Change Station
CLOSE
Current Station
Personal Weather Station
Location: Cudahy, WI
Elevation: 712 ft
Nearby Weather Stations

Elev 712 ft 42.96 °N, 87.86 °W | Updated 4 seconds ago

Light Snow
Light Snow
21.4 °F
Feels Like 21 °F
N
0.0
Wind Variable Wind from NE
Gusts 0.0 mph

Today
High -- | Low -- °F
--% Chance of Precip.
Yesterday
High -- | Low -- °F
Precip. -- in
6:58 AM 4:19 PM
Waxing Crescent, 32% visible
Pressure 30.38 in
Visibility 8.0 miles
Clouds Overcast 2200 ft
Windchill 21 °F
Dew Point 14 °F
Humidity 73%
Rainfall 0.00 in
Snow Depth Not available.
UV 0 out of 12
Pollen .10 out of 12
Air Quality Not available.
Flu Activity Not available.
METAR KMKE 271952Z 32008KT 8SM -SN OVC022 M06/M11 A3034 RMK AO2 SNB10 SLP285 P0000 T10561111

More Conditions Fewer Conditions

Pressure 30.38 in
Visibility 8.0 miles
Clouds Overcast 2200 ft
Windchill 21 °F
Dew Point 14 °F
Humidity 73%
Rainfall 0.00 in
Snow Depth Not available.
UV 0 out of 12
Pollen .10 out of 12
Air Quality Not available.
Flu Activity Not available.
METAR KMKE 271952Z 32008KT 8SM -SN OVC022 M06/M11 A3034 RMK AO2 SNB10 SLP285 P0000 T10561111

More Conditions Fewer Conditions

10-Day Weather Forecast

Almanac

Astronomy

Nov. 27, 2014 Rise Set
Actual Time
Civil Twilight
Nautical Twilight
Astronomical Twilight
Moon
Length of Visible Light
Length of Day
Tomorrow will be .
, % of the Moon is Illuminated

Today's Extremes

State Highs State Lows

Community

WunderPhotos

Upload Photos

1,774,100 photos uploaded!

WunderBlogs® & News

Nearby

Air Quality

  Air Quality AQ Index Pollutant
Not available.

Snow Depth

Station Depth Elevation

Earthquake Activity

City Distance Mag. Time & Date
Minimum magnitude displayed is 2.5.

Coastal Water Temperatures

Place Temperature

Nearby Weather Stations